Time,TemperatureF,DewpointF,PressureIn,WindDirection,WindDirectionDegrees,WindSpeedMPH,WindSpeedGustMPH,Humidity,HourlyPrecipIn,Conditions,Clouds,dailyrainin,SoftwareType,DateUTC
2013-04-05 00:02:00,38.0,36.0,30.10,SE,144,0.0,3.0,91,0.03,,,0.00,weatherlink.com 1.10,2013-04-05 04:02:00,
2013-04-05 00:17:00,37.9,36.0,30.09,WSW,248,0.0,3.0,91,0.05,,,0.03,weatherlink.com 1.10,2013-04-05 04:17:00,
2013-04-05 00:32:00,37.9,36.0,30.07,West,273,0.0,1.0,92,0.07,,,0.05,weatherlink.com 1.10,2013-04-05 04:32:00,
2013-04-05 00:47:00,37.8,36.0,30.07,SW,225,0.0,0.0,92,0.08,,,0.07,weatherlink.com 1.10,2013-04-05 04:47:00,
2013-04-05 01:02:00,37.7,36.0,30.04,West,263,0.0,0.0,93,0.08,,,0.08,weatherlink.com 1.10,2013-04-05 05:02:00,
2013-04-05 01:18:00,37.9,36.0,30.04,West,263,0.0,0.0,93,0.06,,,0.10,weatherlink.com 1.10,2013-04-05 05:18:00,
2013-04-05 01:33:00,38.0,36.0,30.02,West,263,0.0,0.0,93,0.06,,,0.11,weatherlink.com 1.10,2013-04-05 05:33:00,
2013-04-05 01:48:00,38.0,36.0,30.02,WNW,302,0.0,0.0,93,0.05,,,0.12,weatherlink.com 1.10,2013-04-05 05:48:00,
2013-04-05 02:03:00,38.0,37.0,29.99,NNE,16,0.0,0.0,94,0.06,,,0.14,weatherlink.com 1.10,2013-04-05 06:03:00,
2013-04-05 02:18:00,38.1,37.0,29.98,WNW,291,0.0,0.0,94,0.06,,,0.16,weatherlink.com 1.10,2013-04-05 06:18:00,
2013-04-05 02:33:00,39.1,38.0,29.98,East,95,3.0,3.0,95,0.09,,,0.20,weatherlink.com 1.10,2013-04-05 06:33:00,
2013-04-05 02:48:00,39.4,38.0,29.97,NE,43,1.0,3.0,94,0.16,,,0.28,weatherlink.com 1.10,2013-04-05 06:48:00,
2013-04-05 03:03:00,39.5,38.0,29.96,ESE,107,1.0,2.0,94,0.20,,,0.34,weatherlink.com 1.10,2013-04-05 07:03:00,
2013-04-05 03:18:00,39.4,38.0,29.95,NE,34,1.0,2.0,94,0.27,,,0.43,weatherlink.com 1.10,2013-04-05 07:18:00,
2013-04-05 03:33:00,39.4,38.0,29.93,North,8,0.0,3.0,94,0.29,,,0.49,weatherlink.com 1.10,2013-04-05 07:33:00,
2013-04-05 03:48:00,39.3,38.0,29.95,North,353,0.0,2.0,94,0.25,,,0.53,weatherlink.com 1.10,2013-04-05 07:48:00,
2013-04-05 04:03:00,39.1,38.0,29.94,NNE,26,0.0,2.0,94,0.27,,,0.62,weatherlink.com 1.10,2013-04-05 08:03:00,
2013-04-05 04:18:00,39.1,38.0,29.93,NE,40,3.0,5.0,94,0.30,,,0.73,weatherlink.com 1.10,2013-04-05 08:18:00,
2013-04-05 04:33:00,39.0,38.0,29.93,North,357,1.0,3.0,94,0.28,,,0.77,weatherlink.com 1.10,2013-04-05 08:33:00,
2013-04-05 04:48:00,39.2,38.0,29.92,NE,46,1.0,4.0,95,0.27,,,0.80,weatherlink.com 1.10,2013-04-05 08:48:00,
2013-04-05 05:03:00,39.1,38.0,29.93,NNE,32,2.0,6.0,95,0.19,,,0.81,weatherlink.com 1.10,2013-04-05 09:03:00,
2013-04-05 05:18:00,39.1,38.0,29.92,SSE,160,1.0,4.0,95,0.10,,,0.83,weatherlink.com 1.10,2013-04-05 09:18:00,
2013-04-05 05:33:00,38.8,38.0,29.92,WNW,282,2.0,5.0,95,0.10,,,0.87,weatherlink.com 1.10,2013-04-05 09:33:00,
2013-04-05 05:48:00,38.8,38.0,29.91,WNW,286,0.0,5.0,95,0.10,,,0.90,weatherlink.com 1.10,2013-04-05 09:48:00,
2013-04-05 06:03:00,38.7,37.0,29.92,North,349,2.0,4.0,95,0.09,,,0.90,weatherlink.com 1.10,2013-04-05 10:03:00,
2013-04-05 06:18:00,38.7,37.0,29.91,North,349,0.0,1.0,95,0.07,,,0.90,weatherlink.com 1.10,2013-04-05 10:18:00,
2013-04-05 06:33:00,38.9,38.0,29.91,NNW,338,0.0,2.0,95,0.03,,,0.90,weatherlink.com 1.10,2013-04-05 10:33:00,
2013-04-05 06:48:00,39.3,38.0,29.91,West,274,0.0,1.0,95,0.00,,,0.90,weatherlink.com 1.10,2013-04-05 10:48:00,
2013-04-05 07:03:00,39.5,38.0,29.91,West,275,3.0,4.0,95,0.00,,,0.90,weatherlink.com 1.10,2013-04-05 11:03:00,
2013-04-05 07:33:00,39.1,38.0,29.91,West,266,1.0,5.0,95,0.00,,,0.90,weatherlink.com 1.10,2013-04-05 11:33:00,
2013-04-05 07:48:00,39.0,38.0,29.91,West,260,0.0,5.0,95,0.00,,,0.90,weatherlink.com 1.10,2013-04-05 11:48:00,
2013-04-05 08:03:00,39.1,38.0,29.91,ENE,58,3.0,4.0,95,0.00,,,0.90,weatherlink.com 1.10,2013-04-05 12:03:00,
2013-04-05 08:18:00,39.0,38.0,29.91,NNE,25,1.0,5.0,95,0.00,,,0.90,weatherlink.com 1.10,2013-04-05 12:18:00,
2013-04-05 09:18:00,41.9,40.0,29.90,NNE,30,0.0,6.0,92,0.01,,,0.91,weatherlink.com 1.10,2013-04-05 13:18:00,
2013-04-05 10:04:00,45.0,41.0,29.90,NE,36,2.0,5.0,86,0.00,,,0.91,weatherlink.com 1.10,2013-04-05 14:04:00,
2013-04-05 10:34:00,47.2,42.0,29.90,NW,311,1.0,3.0,81,0.00,,,0.91,weatherlink.com 1.10,2013-04-05 14:34:00,
2013-04-05 11:19:00,51.0,42.0,29.88,SSW,211,0.0,4.0,71,0.00,,,0.91,weatherlink.com 1.10,2013-04-05 15:19:00,
2013-04-05 11:34:00,51.6,42.0,29.88,South,190,2.0,6.0,69,0.00,,,0.91,weatherlink.com 1.10,2013-04-05 15:34:00,
2013-04-05 11:50:00,50.5,43.0,29.87,NE,34,3.0,4.0,75,0.00,,,0.91,weatherlink.com 1.10,2013-04-05 15:50:00,
2013-04-05 12:04:00,48.5,42.0,29.86,NE,44,2.0,4.0,79,0.00,,,0.91,weatherlink.com 1.10,2013-04-05 16:04:00,
2013-04-05 12:19:00,50.1,45.0,29.86,East,82,3.0,4.0,82,0.00,,,0.91,weatherlink.com 1.10,2013-04-05 16:19:00,
2013-04-05 12:34:00,49.9,44.0,29.86,ENE,65,3.0,4.0,81,0.00,,,0.91,weatherlink.com 1.10,2013-04-05 16:34:00,
2013-04-05 12:49:00,49.2,44.0,29.86,East,98,4.0,6.0,82,0.00,,,0.91,weatherlink.com 1.10,2013-04-05 16:49:00,
2013-04-05 13:04:00,48.8,45.0,29.85,East,98,3.0,5.0,85,0.00,,,0.91,weatherlink.com 1.10,2013-04-05 17:04:00,
2013-04-05 13:19:00,49.5,45.0,29.85,ESE,106,2.0,4.0,83,0.00,,,0.91,weatherlink.com 1.10,2013-04-05 17:19:00,
2013-04-05 13:34:00,49.2,44.0,29.84,SSE,147,2.0,5.0,83,0.00,,,0.91,weatherlink.com 1.10,2013-04-05 17:34:00,
2013-04-05 13:49:00,49.5,45.0,29.84,East,87,3.0,4.0,83,0.00,,,0.91,weatherlink.com 1.10,2013-04-05 17:49:00,
2013-04-05 14:04:00,50.0,45.0,29.83,ESE,112,2.0,3.0,82,0.00,,,0.91,weatherlink.com 1.10,2013-04-05 18:04:00,
2013-04-05 14:19:00,49.5,44.0,29.83,ESE,107,2.0,3.0,81,0.00,,,0.91,weatherlink.com 1.10,2013-04-05 18:19:00,
2013-04-05 14:34:00,50.7,45.0,29.82,ESE,103,2.0,3.0,80,0.00,,,0.91,weatherlink.com 1.10,2013-04-05 18:34:00,
2013-04-05 14:49:00,50.9,45.0,29.82,ESE,119,2.0,3.0,79,0.00,,,0.91,weatherlink.com 1.10,2013-04-05 18:49:00,
2013-04-05 15:04:00,52.0,45.0,29.81,ESE,103,3.0,3.0,76,0.00,,,0.91,weatherlink.com 1.10,2013-04-05 19:04:00,
2013-04-05 15:34:00,52.8,45.0,29.80,East,96,3.0,3.0,74,0.00,,,0.91,weatherlink.com 1.10,2013-04-05 19:34:00,
2013-04-05 15:49:00,52.6,46.0,29.81,SE,135,2.0,4.0,77,0.00,,,0.91,weatherlink.com 1.10,2013-04-05 19:49:00,
2013-04-05 16:05:00,52.5,46.0,29.80,SSE,158,2.0,5.0,79,0.00,,,0.91,weatherlink.com 1.10,2013-04-05 20:05:00,
2013-04-05 16:19:00,53.2,45.0,29.80,SSE,148,1.0,3.0,74,0.00,,,0.91,weatherlink.com 1.10,2013-04-05 20:19:00,
2013-04-05 16:35:00,53.5,46.0,29.81,SW,214,2.0,3.0,75,0.00,,,0.91,weatherlink.com 1.10,2013-04-05 20:35:00,
2013-04-05 16:50:00,53.1,46.0,29.81,South,170,0.0,4.0,77,0.00,,,0.91,weatherlink.com 1.10,2013-04-05 20:50:00,
2013-04-05 17:05:00,53.4,45.0,29.81,East,98,4.0,4.0,74,0.00,,,0.91,weatherlink.com 1.10,2013-04-05 21:05:00,
2013-04-05 17:20:00,53.6,44.0,29.81,South,184,0.0,4.0,69,0.00,,,0.91,weatherlink.com 1.10,2013-04-05 21:20:00,
2013-04-05 17:35:00,54.0,43.0,29.81,ESE,108,3.0,4.0,66,0.00,,,0.91,weatherlink.com 1.10,2013-04-05 21:35:00,
2013-04-05 17:50:00,53.0,43.0,29.81,ESE,103,1.0,3.0,69,0.00,,,0.91,weatherlink.com 1.10,2013-04-05 21:50:00,
2013-04-05 18:05:00,53.3,43.0,29.82,SSW,211,0.0,3.0,69,0.00,,,0.91,weatherlink.com 1.10,2013-04-05 22:05:00,
2013-04-05 18:20:00,55.6,41.0,29.82,SE,129,3.0,7.0,58,0.00,,,0.91,weatherlink.com 1.10,2013-04-05 22:20:00,
2013-04-05 18:35:00,61.8,33.0,29.83,WSW,243,1.0,8.0,34,0.00,,,0.91,weatherlink.com 1.10,2013-04-05 22:35:00,
2013-04-05 18:50:00,61.8,33.0,29.83,WNW,282,2.0,5.0,34,0.00,,,0.91,weatherlink.com 1.10,2013-04-05 22:50:00,
2013-04-05 19:05:00,61.4,32.0,29.84,NE,54,1.0,7.0,33,0.00,,,0.91,weatherlink.com 1.10,2013-04-05 23:05:00,
2013-04-05 19:20:00,61.2,32.0,29.85,WSW,256,4.0,11.0,34,0.00,,,0.91,weatherlink.com 1.10,2013-04-05 23:20:00,
2013-04-05 19:35:00,60.8,31.0,29.86,NNE,22,1.0,8.0,33,0.00,,,0.91,weatherlink.com 1.10,2013-04-05 23:35:00,
2013-04-05 19:50:00,59.4,32.0,29.87,NNE,20,0.0,4.0,35,0.00,,,0.91,weatherlink.com 1.10,2013-04-05 23:50:00,
2013-04-05 20:05:00,57.4,33.0,29.88,NW,304,2.0,4.0,40,0.00,,,0.91,weatherlink.com 1.10,2013-04-06 00:05:00,
2013-04-05 20:20:00,58.4,32.0,29.89,NE,43,0.0,5.0,37,0.00,,,0.91,weatherlink.com 1.10,2013-04-06 00:20:00,
2013-04-05 20:35:00,58.2,32.0,29.90,West,273,0.0,7.0,37,0.00,,,0.91,weatherlink.com 1.10,2013-04-06 00:35:00,
2013-04-05 20:50:00,58.1,31.0,29.91,NW,316,2.0,10.0,36,0.00,,,0.91,weatherlink.com 1.10,2013-04-06 00:50:00,
2013-04-05 21:05:00,57.7,32.0,29.93,NW,315,0.0,6.0,38,0.00,,,0.91,weatherlink.com 1.10,2013-04-06 01:05:00,
2013-04-05 21:20:00,56.8,31.0,29.94,West,271,3.0,6.0,37,0.00,,,0.91,weatherlink.com 1.10,2013-04-06 01:20:00,
2013-04-05 21:50:00,55.6,31.0,29.95,ENE,61,0.0,4.0,39,0.00,,,0.91,weatherlink.com 1.10,2013-04-06 01:50:00,
2013-04-05 22:05:00,55.3,30.0,29.96,WNW,293,3.0,5.0,38,0.00,,,0.91,weatherlink.com 1.10,2013-04-06 02:05:00,
2013-04-05 22:20:00,55.5,29.0,29.97,North,5,1.0,7.0,37,0.00,,,0.91,weatherlink.com 1.10,2013-04-06 02:20:00,
2013-04-05 22:35:00,55.1,29.0,29.97,West,273,1.0,6.0,37,0.00,,,0.91,weatherlink.com 1.10,2013-04-06 02:35:00,
2013-04-05 22:50:00,53.9,29.0,29.98,WNW,295,0.0,7.0,38,0.00,,,0.91,weatherlink.com 1.10,2013-04-06 02:50:00,
2013-04-05 23:05:00,52.8,29.0,29.99,SSW,205,0.0,2.0,41,0.00,,,0.91,weatherlink.com 1.10,2013-04-06 03:05:00,
2013-04-05 23:20:00,53.0,28.0,29.99,West,278,2.0,6.0,39,0.00,,,0.91,weatherlink.com 1.10,2013-04-06 03:20:00,
2013-04-05 23:35:00,52.8,27.0,29.99,WNW,293,4.0,8.0,37,0.00,,,0.91,weatherlink.com 1.10,2013-04-06 03:35:00,
2013-04-05 23:50:00,52.7,26.0,30.00,NE,44,1.0,9.0,36,0.00,,,0.91,weatherlink.com 1.10,2013-04-06 03:50:00,